Shoreacres, Texas
Current Conditions -  °F | °C
As of 9:50 PM on Friday 24 Oct 2014 (Local Time) from KEFD Reporting Station
Clear Clear  
Wind Chill: 70°   Ceiling: Unl
Heat Index: 70°   Visibility: 10mi
Dew Point: 57°   Wind: 0mph
Humidity: 64%   Direction: NA
Pressure: 30.15"   Gusts: NA
Location:  29.6785°N, 95.0483°W
Report Text: KEFD 250250Z 00000KT 10SM CLR 21/14 A3015
Loading
Personal Weather Stations






























Interactive Weather Map New forecast layout! Learn more

10-Day Weather Forecast

Advertisements
Track Severe Weather on mobile